• Join FlightAware (Why Join?)
  • Login
  • US Flag 
12:02PM EDT


 

Airport Tracker/Info


-or-


 

Live Flight TrackerFlight Track Log ✈ CTL78 ✈ 17-May-2013 ✈ KPTK - KMBS

Flight Track Log - Related Links

Times and Time Zones

All times are in EDT time to prevent confusion due to time zone crossing. See the CTL78 flight status page for this flight to view local times or setup timezone preferences in your user account.

Time Position Orientation Groundspeed Altitude Reporting Facility
EDT Latitude Longitude Course Direction KTS MPH feet Rate Location/Type
03:53PM 42.6653 -83.4069 64° Northeast 113 130 1,400  Level Cleveland Center
03:54PM 42.6742 -83.3819 64° Northeast 128 147 2,000 780 Climbing Cleveland Center
03:56PM 42.7441 -83.3964 14° North  Level FlightAware Approximate
04:03PM 42.9690 -83.4425 321° Northwest  Level FlightAware Approximate
04:04PM 42.9964 -83.4727 321° Northwest  Level FlightAware Approximate
04:05PM 43.0238 -83.5029 321° Northwest  Level FlightAware Approximate
04:06PM 43.0512 -83.5331 321° Northwest  Level FlightAware Approximate
04:07PM 43.0785 -83.5634 321° Northwest  Level FlightAware Approximate
04:08PM 43.1059 -83.5937 321° Northwest  Level FlightAware Approximate
04:09PM 43.1332 -83.6240 321° Northwest  Level FlightAware Approximate
04:10PM 43.1606 -83.6543 321° Northwest  Level FlightAware Approximate
04:11PM 43.1879 -83.6847 321° Northwest  Level FlightAware Approximate
04:12PM 43.2153 -83.7151 321° Northwest  Level FlightAware Approximate
04:13PM 43.2416 -83.7471 318° Northwest  Level FlightAware Approximate
04:14PM 43.2679 -83.7792 318° Northwest  Level FlightAware Approximate
04:15PM 43.2942 -83.8113 318° Northwest  Level FlightAware Approximate
04:16PM 43.3205 -83.8434 318° Northwest  Level FlightAware Approximate
04:17PM 43.3467 -83.8756 318° Northwest  Level FlightAware Approximate
04:18PM 43.3736 -83.9069 324° Northwest  Level FlightAware Approximate
04:19PM 43.4020 -83.9353 324° Northwest  Level FlightAware Approximate
04:20PM 43.4305 -83.9637 324° Northwest  Level FlightAware Approximate
04:21PM 43.4590 -83.9922 324° Northwest  Level FlightAware Approximate
04:22PM 43.4874 -84.0207 324° Northwest  Level FlightAware Approximate
04:23PM 43.5111 -84.0556 305° West  Level FlightAware Approximate
04:24PM 43.5167 -84.0667 305° West  Level FlightAware Approximate
04:25PM 43.5329 -84.0796 305° West  Level Estimated
04:26PM 43.5329 -84.0796 305° West  Level Estimated